createdAt,value
2017-07-17T00:00:12.991Z,18.03
2017-07-17T00:00:53.532Z,17.92
2017-07-17T00:01:34.061Z,17.93
2017-07-17T00:02:14.592Z,17.96
2017-07-17T00:02:55.136Z,17.95
2017-07-17T00:03:35.671Z,17.93
2017-07-17T00:04:16.250Z,17.86
2017-07-17T00:04:56.756Z,17.93
2017-07-17T00:05:37.304Z,17.95
2017-07-17T00:06:17.843Z,17.93
2017-07-17T00:06:58.384Z,17.93
2017-07-17T00:07:38.924Z,17.97
2017-07-17T00:08:19.467Z,17.92
2017-07-17T00:09:00.008Z,17.95
2017-07-17T00:09:40.538Z,17.96
2017-07-17T00:10:21.083Z,17.96
2017-07-17T00:11:01.643Z,17.92
2017-07-17T00:11:42.160Z,17.95
2017-07-17T00:12:22.698Z,17.93
2017-07-17T00:13:03.241Z,17.92
2017-07-17T00:13:43.781Z,17.9
2017-07-17T00:14:24.310Z,17.93
2017-07-17T00:15:04.858Z,17.93
2017-07-17T00:15:45.404Z,17.9
2017-07-17T00:16:25.948Z,17.9
2017-07-17T00:17:06.483Z,17.9
2017-07-17T00:17:47.025Z,17.78
2017-07-17T00:18:27.572Z,17.81
2017-07-17T00:19:08.140Z,17.92
2017-07-17T00:19:48.658Z,17.78
2017-07-17T00:20:29.200Z,17.78
2017-07-17T00:21:09.742Z,17.77
2017-07-17T00:21:50.283Z,17.77
2017-07-17T00:22:30.823Z,17.81
2017-07-17T00:23:11.359Z,17.75
2017-07-17T00:23:51.913Z,17.81
2017-07-17T00:24:32.451Z,17.81
2017-07-17T00:25:12.982Z,17.74
2017-07-17T00:25:53.527Z,17.77
2017-07-17T00:26:34.072Z,17.79
2017-07-17T00:27:14.613Z,17.74
2017-07-17T00:27:55.156Z,17.77
2017-07-17T00:28:35.696Z,17.86
2017-07-17T00:29:16.234Z,17.81
2017-07-17T00:29:56.767Z,17.78
2017-07-17T00:30:37.300Z,17.77
2017-07-17T00:31:17.848Z,17.74
2017-07-17T00:31:58.387Z,17.74
2017-07-17T00:32:38.932Z,17.78
2017-07-17T00:33:19.472Z,17.75
2017-07-17T00:34:00.014Z,17.77
2017-07-17T00:34:40.566Z,17.74
2017-07-17T00:35:21.101Z,17.79
2017-07-17T00:36:01.642Z,17.77
2017-07-17T00:36:42.180Z,17.78
2017-07-17T00:37:22.724Z,17.78
2017-07-17T00:38:03.278Z,17.71
2017-07-17T00:38:43.817Z,17.75
2017-07-17T00:39:24.363Z,17.71
2017-07-17T00:40:04.906Z,17.75
2017-07-17T00:40:45.445Z,17.74
2017-07-17T00:41:25.992Z,17.71
2017-07-17T00:42:06.529Z,17.77
2017-07-17T00:42:47.071Z,17.77
2017-07-17T00:43:27.611Z,17.74
2017-07-17T00:44:08.139Z,17.75
2017-07-17T00:44:48.673Z,17.71
2017-07-17T00:45:29.214Z,17.66
2017-07-17T00:46:09.752Z,17.68
2017-07-17T00:46:50.304Z,17.62
2017-07-17T00:47:30.849Z,17.68
2017-07-17T00:48:11.385Z,17.7
2017-07-17T00:48:51.928Z,17.64
2017-07-17T00:49:32.458Z,17.59
2017-07-17T00:50:12.992Z,17.63
2017-07-17T00:50:53.537Z,17.63
2017-07-17T00:51:34.077Z,17.58
2017-07-17T00:52:14.619Z,17.58
2017-07-17T00:52:55.157Z,17.59
2017-07-17T00:53:35.700Z,17.58
2017-07-17T00:54:16.240Z,17.63
2017-07-17T00:54:56.780Z,17.56
2017-07-17T00:55:37.324Z,17.59
2017-07-17T00:56:17.865Z,17.58
2017-07-17T00:56:58.398Z,17.56
2017-07-17T00:57:38.943Z,17.59
2017-07-17T00:58:19.536Z,17.55
2017-07-17T00:59:00.082Z,17.56
2017-07-17T00:59:40.634Z,17.58
2017-07-17T01:00:21.184Z,17.59
2017-07-17T01:01:01.730Z,17.64
2017-07-17T01:01:42.271Z,17.59
2017-07-17T01:02:22.804Z,17.56
2017-07-17T01:03:03.346Z,17.55
2017-07-17T01:03:43.886Z,17.58
2017-07-17T01:04:24.432Z,17.55
2017-07-17T01:05:04.973Z,17.64
2017-07-17T01:05:45.520Z,17.64
2017-07-17T01:06:26.065Z,17.55
2017-07-17T01:07:06.605Z,17.59
2017-07-17T01:07:47.147Z,17.66
2017-07-17T01:08:27.685Z,17.68
2017-07-17T01:09:08.216Z,17.59
2017-07-17T01:09:48.761Z,17.68
2017-07-17T01:10:29.307Z,17.7
2017-07-17T01:11:09.845Z,17.64
2017-07-17T01:11:50.391Z,17.64
2017-07-17T01:12:30.932Z,17.7
2017-07-17T01:13:11.477Z,17.66
2017-07-17T01:13:52.027Z,17.62
2017-07-17T01:14:32.563Z,17.71
2017-07-17T01:15:13.106Z,17.68
2017-07-17T01:15:53.651Z,17.7
2017-07-17T01:16:34.193Z,17.66
2017-07-17T01:17:14.726Z,17.66
2017-07-17T01:17:55.262Z,17.71
2017-07-17T01:18:35.799Z,17.75
2017-07-17T01:19:16.347Z,17.63
2017-07-17T01:19:56.882Z,17.7
2017-07-17T01:20:37.430Z,17.74
2017-07-17T01:21:17.971Z,17.74
2017-07-17T01:21:58.516Z,17.7
2017-07-17T01:22:39.061Z,17.68
2017-07-17T01:23:19.611Z,17.71
2017-07-17T01:24:00.159Z,17.74
2017-07-17T01:24:40.711Z,17.75
2017-07-17T01:25:21.252Z,17.68
2017-07-17T01:26:01.796Z,17.68
2017-07-17T01:26:42.338Z,17.68
2017-07-17T01:27:22.878Z,17.68
2017-07-17T01:28:03.422Z,17.68
2017-07-17T01:28:43.960Z,17.7
2017-07-17T01:29:24.509Z,17.66
2017-07-17T01:30:05.048Z,17.68
2017-07-17T01:30:45.596Z,17.58
2017-07-17T01:31:26.181Z,17.63
2017-07-17T01:32:06.724Z,17.71
2017-07-17T01:32:47.266Z,17.59
2017-07-17T01:33:27.815Z,17.58
2017-07-17T01:34:08.367Z,17.55
2017-07-17T01:34:48.897Z,17.62
2017-07-17T01:35:29.454Z,17.62
2017-07-17T01:36:09.998Z,17.56
2017-07-17T01:36:50.543Z,17.63
2017-07-17T01:37:31.082Z,17.56
2017-07-17T01:38:11.635Z,17.55
2017-07-17T01:38:52.165Z,17.58
2017-07-17T01:39:32.766Z,17.59
2017-07-17T01:40:13.307Z,17.62
2017-07-17T01:40:53.856Z,17.64
2017-07-17T01:41:34.421Z,17.66
2017-07-17T01:42:14.934Z,17.63
2017-07-17T01:42:55.471Z,17.64
2017-07-17T01:43:36.017Z,17.64
2017-07-17T01:44:16.551Z,17.64
2017-07-17T01:44:57.095Z,17.68
2017-07-17T01:45:37.630Z,17.68
2017-07-17T01:46:18.180Z,17.59
2017-07-17T01:46:58.730Z,17.71
2017-07-17T01:47:39.279Z,17.71
2017-07-17T01:48:19.818Z,17.72
2017-07-17T01:49:00.364Z,17.74
2017-07-17T01:49:40.913Z,17.7
2017-07-17T01:50:21.460Z,17.79
2017-07-17T01:51:02.013Z,17.7
2017-07-17T01:51:42.566Z,17.78
2017-07-17T01:52:23.121Z,17.77
2017-07-17T01:53:03.669Z,17.77
2017-07-17T01:53:44.223Z,17.74
2017-07-17T01:54:24.766Z,17.78
2017-07-17T01:55:05.310Z,17.86
2017-07-17T01:55:45.853Z,17.81
2017-07-17T01:56:26.398Z,17.87
2017-07-17T01:57:06.939Z,17.77
2017-07-17T01:57:47.483Z,17.78
2017-07-17T01:58:28.028Z,17.78
2017-07-17T01:59:08.566Z,17.78
2017-07-17T01:59:49.108Z,17.77
2017-07-17T02:00:29.650Z,17.77
2017-07-17T02:01:10.198Z,17.77
2017-07-17T02:01:50.736Z,17.81
2017-07-17T02:02:31.268Z,17.71
2017-07-17T02:03:11.802Z,17.77
2017-07-17T02:03:52.350Z,17.74
2017-07-17T02:04:32.897Z,17.79
2017-07-17T02:05:13.440Z,17.78
2017-07-17T02:05:53.972Z,17.75
2017-07-17T02:06:34.510Z,17.78
2017-07-17T02:07:15.067Z,17.77
2017-07-17T02:07:55.603Z,17.75
2017-07-17T02:08:36.157Z,17.78
2017-07-17T02:09:16.689Z,17.78
2017-07-17T02:09:57.234Z,17.79
2017-07-17T02:10:37.781Z,17.75
2017-07-17T02:11:18.322Z,17.75
2017-07-17T02:11:58.864Z,17.78
2017-07-17T02:12:39.408Z,17.86
2017-07-17T02:13:19.947Z,17.79
2017-07-17T02:14:00.480Z,17.75
2017-07-17T02:14:41.017Z,17.81
2017-07-17T02:15:21.560Z,17.79
2017-07-17T02:16:02.110Z,17.74
2017-07-17T02:16:42.643Z,17.75
2017-07-17T02:17:23.190Z,17.74
2017-07-17T02:18:03.734Z,17.78
2017-07-17T02:18:44.280Z,17.79
2017-07-17T02:19:24.830Z,17.72
2017-07-17T02:20:05.371Z,17.72
2017-07-17T02:20:45.920Z,17.71
2017-07-17T02:21:26.465Z,17.66
2017-07-17T02:22:07.005Z,17.72
2017-07-17T02:22:47.538Z,17.74
2017-07-17T02:23:28.084Z,17.7
2017-07-17T02:24:08.623Z,17.7
2017-07-17T02:24:49.172Z,17.66
2017-07-17T02:25:29.707Z,17.7
2017-07-17T02:26:10.275Z,17.66
2017-07-17T02:26:50.791Z,17.7
2017-07-17T02:27:31.320Z,17.68
2017-07-17T02:28:11.860Z,17.72
2017-07-17T02:28:52.401Z,17.62
2017-07-17T02:29:32.937Z,17.59
2017-07-17T02:30:13.475Z,17.59
2017-07-17T02:30:54.018Z,17.62
2017-07-17T02:31:34.563Z,17.68
2017-07-17T02:32:15.127Z,17.56
2017-07-17T02:32:55.676Z,17.68
2017-07-17T02:33:36.214Z,17.64
2017-07-17T02:34:16.762Z,17.7
2017-07-17T02:34:57.298Z,17.68
2017-07-17T02:35:37.843Z,17.66
2017-07-17T02:36:18.387Z,17.68
2017-07-17T02:36:58.929Z,17.62
2017-07-17T02:37:39.470Z,17.68
2017-07-17T02:38:20.007Z,17.68
2017-07-17T02:39:00.554Z,17.68
2017-07-17T02:39:41.086Z,17.59
2017-07-17T02:40:21.636Z,17.72
2017-07-17T02:41:02.182Z,17.63
2017-07-17T02:41:42.723Z,17.66
2017-07-17T02:42:23.269Z,17.62
2017-07-17T02:43:03.822Z,17.74
2017-07-17T02:43:44.375Z,17.74
2017-07-17T02:44:24.921Z,17.75
2017-07-17T02:45:05.463Z,17.74
2017-07-17T02:45:46.000Z,17.74
2017-07-17T02:46:26.548Z,17.84
2017-07-17T02:47:07.084Z,17.82
2017-07-17T02:47:47.633Z,17.79
2017-07-17T02:48:28.170Z,17.78
2017-07-17T02:49:08.711Z,17.81
2017-07-17T02:49:49.249Z,17.78
2017-07-17T02:50:29.788Z,17.77
2017-07-17T02:51:10.331Z,17.75
2017-07-17T02:51:50.953Z,17.75
2017-07-17T02:52:31.495Z,17.82
2017-07-17T02:53:12.036Z,17.75
2017-07-17T02:53:52.572Z,17.78
2017-07-17T02:54:33.113Z,17.79
2017-07-17T02:55:13.653Z,17.78
2017-07-17T02:55:54.197Z,17.77
2017-07-17T02:56:34.743Z,17.77
2017-07-17T02:57:15.283Z,17.81
2017-07-17T02:57:55.829Z,17.92
2017-07-17T02:58:36.368Z,17.93
2017-07-17T02:59:16.913Z,17.86
2017-07-17T02:59:57.451Z,17.92
2017-07-17T03:00:37.996Z,17.93
2017-07-17T03:01:18.528Z,17.89
2017-07-17T03:01:59.067Z,17.82
2017-07-17T03:02:39.609Z,17.9
2017-07-17T03:03:20.162Z,17.84
2017-07-17T03:04:00.699Z,17.93
2017-07-17T03:04:41.244Z,17.89
2017-07-17T03:05:21.792Z,17.89
2017-07-17T03:06:02.337Z,17.84
2017-07-17T03:06:42.879Z,17.93
2017-07-17T03:07:23.422Z,17.79
2017-07-17T03:08:03.958Z,17.92
2017-07-17T03:08:44.503Z,17.79
2017-07-17T03:09:25.040Z,17.78
2017-07-17T03:10:05.581Z,17.78
2017-07-17T03:10:46.124Z,17.79
2017-07-17T03:11:26.661Z,17.79
2017-07-17T03:12:07.205Z,17.77
2017-07-17T03:12:47.756Z,17.79
2017-07-17T03:13:28.300Z,17.77
2017-07-17T03:14:08.837Z,17.77
2017-07-17T03:14:49.382Z,17.78
2017-07-17T03:15:29.928Z,17.77
2017-07-17T03:16:10.471Z,17.79
2017-07-17T03:16:51.055Z,17.74
2017-07-17T03:17:31.546Z,17.75
2017-07-17T03:18:12.090Z,17.77
2017-07-17T03:18:52.627Z,17.81
2017-07-17T03:19:33.200Z,17.84
2017-07-17T03:20:13.746Z,17.77
2017-07-17T03:20:54.291Z,17.75
2017-07-17T03:21:34.836Z,17.81
2017-07-17T03:22:15.381Z,17.82
2017-07-17T03:22:55.932Z,17.81
2017-07-17T03:23:36.468Z,17.77
2017-07-17T03:24:17.015Z,17.75
2017-07-17T03:24:57.566Z,17.77
2017-07-17T03:25:38.113Z,17.78
2017-07-17T03:26:18.657Z,17.84
2017-07-17T03:26:59.200Z,17.79
2017-07-17T03:27:39.746Z,17.81
2017-07-17T03:28:20.288Z,17.82
2017-07-17T03:29:00.816Z,17.84
2017-07-17T03:29:41.369Z,17.77
2017-07-17T03:30:21.908Z,17.81
2017-07-17T03:31:02.452Z,17.93
2017-07-17T03:31:42.990Z,17.92
2017-07-17T03:32:23.545Z,17.9
2017-07-17T03:33:04.077Z,17.9
2017-07-17T03:33:44.632Z,17.9
2017-07-17T03:34:25.175Z,17.96
2017-07-17T03:35:05.711Z,17.96
2017-07-17T03:35:46.253Z,17.95
2017-07-17T03:36:26.795Z,17.95
2017-07-17T03:37:07.342Z,17.89
2017-07-17T03:37:47.882Z,17.89
2017-07-17T03:38:28.411Z,17.95
2017-07-17T03:39:08.943Z,17.95
2017-07-17T03:39:49.502Z,17.99
2017-07-17T03:40:30.050Z,18
2017-07-17T03:41:10.593Z,18
2017-07-17T03:41:51.135Z,17.95
2017-07-17T03:42:31.684Z,17.96
2017-07-17T03:43:12.231Z,17.96
2017-07-17T03:43:52.771Z,17.96
2017-07-17T03:44:33.315Z,18
2017-07-17T03:45:13.862Z,18
2017-07-17T03:45:54.403Z,18
2017-07-17T03:46:34.944Z,18.05
2017-07-17T03:47:15.481Z,17.99
2017-07-17T03:47:56.026Z,17.97
2017-07-17T03:48:36.571Z,17.96
2017-07-17T03:49:17.116Z,17.96
2017-07-17T03:49:57.663Z,18.07
2017-07-17T03:50:38.200Z,18.02
2017-07-17T03:51:18.749Z,18.05
2017-07-17T03:51:59.294Z,18.05
2017-07-17T03:52:39.843Z,18.03
2017-07-17T03:53:20.381Z,18.08
2017-07-17T03:54:00.926Z,18.05
2017-07-17T03:54:41.473Z,18.05
2017-07-17T03:55:22.015Z,18.12
2017-07-17T03:56:02.547Z,18.08
2017-07-17T03:56:43.097Z,18.05
2017-07-17T03:57:23.648Z,18.08
2017-07-17T03:58:04.189Z,18.08
2017-07-17T03:58:44.724Z,18.07
2017-07-17T03:59:25.274Z,18.12
2017-07-17T04:00:05.808Z,18.15
2017-07-17T04:00:46.354Z,18.12
2017-07-17T04:01:26.893Z,18.12
2017-07-17T04:02:07.424Z,18.12
2017-07-17T04:02:47.965Z,18.14
2017-07-17T04:03:28.503Z,18.14
2017-07-17T04:04:09.043Z,18.17
2017-07-17T04:04:49.586Z,18.12
2017-07-17T04:05:30.130Z,18.14
2017-07-17T04:06:10.680Z,18.15
2017-07-17T04:06:51.223Z,18.2
2017-07-17T04:07:31.794Z,18.17
2017-07-17T04:08:12.348Z,18.14
2017-07-17T04:08:52.900Z,18.18
2017-07-17T04:09:33.403Z,18.21
2017-07-17T04:10:13.946Z,18.2
2017-07-17T04:10:54.478Z,18.18
2017-07-17T04:11:35.002Z,18.23
2017-07-17T04:12:15.648Z,18.23
2017-07-17T04:12:56.208Z,18.15
2017-07-17T04:13:36.746Z,18.25
2017-07-17T04:14:17.273Z,18.27
2017-07-17T04:14:57.826Z,18.23
2017-07-17T04:15:38.347Z,18.21
2017-07-17T04:16:19.064Z,18.25
2017-07-17T04:16:59.610Z,18.23
2017-07-17T04:17:40.154Z,18.21
2017-07-17T04:18:20.698Z,18.25
2017-07-17T04:19:01.249Z,18.27
2017-07-17T04:19:41.783Z,18.25
2017-07-17T04:20:22.329Z,18.18
2017-07-17T04:21:02.867Z,18.26
2017-07-17T04:21:43.416Z,18.25
2017-07-17T04:22:23.957Z,18.18
2017-07-17T04:23:04.519Z,18.2
2017-07-17T04:23:45.036Z,18.17
2017-07-17T04:24:25.535Z,18.2
2017-07-17T04:25:06.026Z,18.17
2017-07-17T04:25:46.506Z,18.21
2017-07-17T04:26:27.026Z,18.23
2017-07-17T04:27:07.580Z,18.17
2017-07-17T04:27:48.087Z,18.21
2017-07-17T04:28:28.709Z,18.21
2017-07-17T04:29:09.218Z,18.17
2017-07-17T04:29:49.767Z,18.2
2017-07-17T04:30:30.306Z,18.17
2017-07-17T04:31:10.882Z,18.17
2017-07-17T04:31:51.434Z,18.21
2017-07-17T04:32:32.030Z,18.23
2017-07-17T04:33:12.589Z,18.2
2017-07-17T04:33:53.132Z,18.27
2017-07-17T04:34:33.668Z,18.26
2017-07-17T04:35:14.193Z,18.27
2017-07-17T04:35:54.731Z,18.17
2017-07-17T04:36:35.288Z,18.18
2017-07-17T04:37:15.838Z,18.27
2017-07-17T04:37:56.395Z,18.32
2017-07-17T04:38:36.940Z,18.26
2017-07-17T04:39:17.482Z,18.3
2017-07-17T04:39:58.030Z,18.26
2017-07-17T04:40:38.591Z,18.25
2017-07-17T04:41:19.103Z,18.25
2017-07-17T04:41:59.741Z,18.26
2017-07-17T04:42:40.253Z,18.2
2017-07-17T04:43:20.802Z,18.23
2017-07-17T04:44:01.314Z,18.27
2017-07-17T04:44:41.849Z,18.25
2017-07-17T04:45:22.352Z,18.27
2017-07-17T04:46:02.867Z,18.3
2017-07-17T04:46:43.407Z,18.25
2017-07-17T04:47:23.940Z,18.25
2017-07-17T04:48:04.472Z,18.39
2017-07-17T04:48:45.004Z,18.25
2017-07-17T04:49:25.531Z,18.36
2017-07-17T04:50:06.076Z,18.36
2017-07-17T04:50:46.615Z,18.37
2017-07-17T04:51:27.147Z,18.29
2017-07-17T04:52:07.666Z,18.39
2017-07-17T04:52:48.202Z,18.35
2017-07-17T04:53:28.755Z,18.36
2017-07-17T04:54:09.299Z,18.39
2017-07-17T04:54:49.824Z,18.36
2017-07-17T04:55:30.363Z,18.42
2017-07-17T04:56:10.897Z,18.36
2017-07-17T04:56:51.443Z,18.36
2017-07-17T04:57:31.990Z,18.3
2017-07-17T04:58:12.526Z,18.35
2017-07-17T04:58:53.096Z,18.33
2017-07-17T04:59:33.653Z,18.42
2017-07-17T05:00:14.193Z,18.37
2017-07-17T05:00:54.739Z,18.48
2017-07-17T05:01:35.266Z,18.44
2017-07-17T05:02:15.805Z,18.48
2017-07-17T05:02:56.342Z,18.48
2017-07-17T05:03:36.861Z,18.51
2017-07-17T05:04:17.385Z,18.5
2017-07-17T05:04:57.949Z,18.5
2017-07-17T05:05:38.465Z,18.5
2017-07-17T05:06:19.014Z,18.52
2017-07-17T05:06:59.550Z,18.55
2017-07-17T05:07:40.072Z,18.51
2017-07-17T05:08:20.622Z,18.52
2017-07-17T05:09:01.168Z,18.52
2017-07-17T05:09:41.711Z,18.51
2017-07-17T05:10:22.258Z,18.48
2017-07-17T05:11:02.806Z,18.57
2017-07-17T05:11:43.344Z,18.52
2017-07-17T05:12:23.891Z,18.62
2017-07-17T05:13:04.430Z,18.55
2017-07-17T05:13:44.969Z,18.63
2017-07-17T05:14:25.509Z,18.72
2017-07-17T05:15:06.050Z,18.63
2017-07-17T05:15:46.590Z,18.63
2017-07-17T05:16:27.138Z,18.67
2017-07-17T05:17:07.689Z,18.63
2017-07-17T05:17:48.224Z,18.67
2017-07-17T05:18:28.760Z,18.67
2017-07-17T05:19:09.305Z,18.63
2017-07-17T05:19:49.847Z,18.67
2017-07-17T05:20:30.384Z,18.63
2017-07-17T05:21:10.925Z,18.66
2017-07-17T05:21:51.521Z,18.67
2017-07-17T05:22:32.068Z,18.67
2017-07-17T05:23:12.611Z,18.69
2017-07-17T05:23:53.158Z,18.67
2017-07-17T05:24:33.699Z,18.7
2017-07-17T05:25:14.267Z,18.69
2017-07-17T05:25:54.806Z,18.65
2017-07-17T05:26:35.346Z,18.65
2017-07-17T05:27:15.890Z,18.76
2017-07-17T05:27:56.427Z,18.69
2017-07-17T05:28:36.968Z,18.66
2017-07-17T05:29:17.516Z,18.69
2017-07-17T05:29:58.061Z,18.7
2017-07-17T05:30:38.603Z,18.76
2017-07-17T05:31:19.142Z,18.73
2017-07-17T05:31:59.708Z,18.82
2017-07-17T05:32:40.260Z,18.84
2017-07-17T05:33:20.803Z,18.78
2017-07-17T05:34:01.353Z,18.76
2017-07-17T05:34:41.902Z,18.78
2017-07-17T05:35:22.456Z,18.8
2017-07-17T05:36:02.991Z,18.81
2017-07-17T05:36:43.538Z,18.75
2017-07-17T05:37:24.086Z,18.8
2017-07-17T05:38:04.627Z,18.81
2017-07-17T05:38:45.170Z,18.82
2017-07-17T05:39:25.702Z,18.82
2017-07-17T05:40:06.245Z,18.9
2017-07-17T05:40:46.784Z,18.82
2017-07-17T05:41:27.334Z,18.85
2017-07-17T05:42:07.900Z,18.85
2017-07-17T05:42:48.391Z,18.87
2017-07-17T05:43:28.924Z,18.87
2017-07-17T05:44:09.469Z,18.8
2017-07-17T05:44:50.001Z,18.9
2017-07-17T05:45:30.583Z,18.92
2017-07-17T05:46:11.086Z,18.94
2017-07-17T05:46:51.626Z,18.88
2017-07-17T05:47:32.170Z,18.98
2017-07-17T05:48:12.717Z,18.94
2017-07-17T05:48:53.269Z,18.98
2017-07-17T05:49:33.808Z,18.99
2017-07-17T05:50:14.522Z,18.94
2017-07-17T05:50:55.341Z,18.99
2017-07-17T05:51:35.847Z,19.02
2017-07-17T05:52:16.472Z,18.99
2017-07-17T05:52:57.010Z,18.95
2017-07-17T05:53:37.557Z,18.94
2017-07-17T05:54:18.097Z,18.98
2017-07-17T05:54:58.644Z,19
2017-07-17T05:55:39.196Z,19.06
2017-07-17T05:56:19.743Z,19.02
2017-07-17T05:57:00.294Z,19.07
2017-07-17T05:57:40.843Z,19.04
2017-07-17T05:58:21.391Z,19.18
2017-07-17T05:59:01.927Z,19.1
2017-07-17T05:59:42.462Z,19.18
2017-07-17T06:00:23.007Z,19.18
2017-07-17T06:01:03.550Z,19.22
2017-07-17T06:01:44.087Z,19.18
2017-07-17T06:02:24.641Z,19.18
2017-07-17T06:03:05.177Z,19.23
2017-07-17T06:03:45.723Z,19.25
2017-07-17T06:04:26.267Z,19.19
2017-07-17T06:05:06.900Z,19.26
2017-07-17T06:05:47.443Z,19.22
2017-07-17T06:06:28.117Z,19.28
2017-07-17T06:07:08.737Z,19.28
2017-07-17T06:07:49.308Z,19.29
2017-07-17T06:08:29.880Z,19.32
2017-07-17T06:09:10.445Z,19.31
2017-07-17T06:09:51.210Z,19.23
2017-07-17T06:10:31.758Z,19.28
2017-07-17T06:11:14.112Z,19.25
2017-07-17T06:11:54.652Z,19.36
2017-07-17T06:12:35.198Z,19.32
2017-07-17T06:13:15.936Z,19.39
2017-07-17T06:13:56.464Z,19.39
2017-07-17T06:14:37.084Z,19.37
2017-07-17T06:15:18.314Z,19.41
2017-07-17T06:15:58.900Z,19.48
2017-07-17T06:16:39.447Z,19.43
2017-07-17T06:17:19.983Z,19.4
2017-07-17T06:18:00.631Z,19.44
2017-07-17T06:18:41.213Z,19.43
2017-07-17T06:19:21.752Z,19.43
2017-07-17T06:20:02.320Z,19.51
2017-07-17T06:20:42.905Z,19.4
2017-07-17T06:21:23.441Z,19.4
2017-07-17T06:22:03.979Z,19.44
2017-07-17T06:22:44.569Z,19.44
2017-07-17T06:23:25.172Z,19.41
2017-07-17T06:24:05.780Z,19.41
2017-07-17T06:24:47.185Z,19.4
2017-07-17T06:25:28.714Z,19.36
2017-07-17T06:26:09.254Z,19.43
2017-07-17T06:26:49.802Z,19.43
2017-07-17T06:27:30.342Z,19.47
2017-07-17T06:28:11.019Z,19.4
2017-07-17T06:28:51.565Z,19.4
2017-07-17T06:29:32.108Z,19.46
2017-07-17T06:30:12.650Z,19.4
2017-07-17T06:30:53.183Z,19.46
2017-07-17T06:31:33.967Z,19.43
2017-07-17T06:32:14.508Z,19.4
2017-07-17T06:32:55.145Z,19.41
2017-07-17T06:33:35.900Z,19.47
2017-07-17T06:34:17.222Z,19.4
2017-07-17T06:34:57.773Z,19.43
2017-07-17T06:35:38.323Z,19.43
2017-07-17T06:36:18.898Z,19.4
2017-07-17T06:36:59.439Z,19.55
2017-07-17T06:37:40.556Z,19.51
2017-07-17T06:38:21.093Z,19.58
2017-07-17T06:39:01.634Z,19.63
2017-07-17T06:39:42.178Z,19.54
2017-07-17T06:40:22.763Z,19.55
2017-07-17T06:41:03.501Z,19.58
2017-07-17T06:41:44.049Z,19.55
2017-07-17T06:42:24.668Z,19.65
2017-07-17T06:43:05.303Z,19.71
2017-07-17T06:43:45.855Z,19.69
2017-07-17T06:44:26.398Z,19.73
2017-07-17T06:45:07.046Z,19.77
2017-07-17T06:45:47.589Z,19.74
2017-07-17T06:46:28.129Z,19.73
2017-07-17T06:47:08.693Z,19.78
2017-07-17T06:47:49.213Z,19.8
2017-07-17T06:48:29.757Z,19.83
2017-07-17T06:49:10.305Z,19.87
2017-07-17T06:49:50.910Z,19.81
2017-07-17T06:50:31.433Z,19.87
2017-07-17T06:51:11.981Z,19.92
2017-07-17T06:51:52.552Z,19.91
2017-07-17T06:52:33.088Z,19.91
2017-07-17T06:53:13.624Z,19.98
2017-07-17T06:53:54.165Z,19.96
2017-07-17T06:54:34.714Z,20.01
2017-07-17T06:55:15.338Z,20.03
2017-07-17T06:55:55.883Z,19.99
2017-07-17T06:56:36.667Z,20.14
2017-07-17T06:57:17.455Z,20.13
2017-07-17T06:57:57.957Z,20.18
2017-07-17T06:58:38.626Z,20.18
2017-07-17T06:59:19.350Z,20.17
2017-07-17T06:59:59.990Z,20.23
2017-07-17T07:00:40.533Z,20.21
2017-07-17T07:01:21.222Z,20.28
2017-07-17T07:02:01.929Z,20.21
2017-07-17T07:02:42.536Z,20.28
2017-07-17T07:03:23.161Z,20.21
2017-07-17T07:04:03.882Z,20.29
2017-07-17T07:04:44.598Z,20.31
2017-07-17T07:05:25.252Z,20.26
2017-07-17T07:06:05.803Z,20.41
2017-07-17T07:06:46.344Z,20.42
2017-07-17T07:07:26.889Z,20.42
2017-07-17T07:08:07.434Z,20.39
2017-07-17T07:08:47.984Z,20.39
2017-07-17T07:09:28.522Z,20.5
2017-07-17T07:10:09.069Z,20.36
2017-07-17T07:10:49.609Z,20.47
2017-07-17T07:11:30.146Z,20.48
2017-07-17T07:12:10.690Z,20.43
2017-07-17T07:12:51.233Z,20.58
2017-07-17T07:13:31.782Z,20.54
2017-07-17T07:14:12.330Z,20.54
2017-07-17T07:14:52.872Z,20.67
2017-07-17T07:15:33.414Z,20.61
2017-07-17T07:16:13.962Z,20.74
2017-07-17T07:16:54.510Z,20.77
2017-07-17T07:17:35.059Z,20.87
2017-07-17T07:18:15.601Z,20.88
2017-07-17T07:18:56.144Z,20.91
2017-07-17T07:19:36.696Z,20.92
2017-07-17T07:20:17.237Z,20.92
2017-07-17T07:20:57.780Z,20.97
2017-07-17T07:21:38.318Z,20.95
2017-07-17T07:22:18.859Z,20.97
2017-07-17T07:22:59.401Z,20.97
2017-07-17T07:23:39.940Z,20.99
2017-07-17T07:24:20.492Z,21.07
2017-07-17T07:25:01.050Z,21.17
2017-07-17T07:25:41.576Z,21.19
2017-07-17T07:26:22.122Z,21.13
2017-07-17T07:27:02.666Z,21.14
2017-07-17T07:27:43.213Z,21.1
2017-07-17T07:28:23.759Z,21.22
2017-07-17T07:29:04.306Z,21.21
2017-07-17T07:29:44.855Z,21.24
2017-07-17T07:30:25.395Z,21.19
2017-07-17T07:31:05.924Z,21.4
2017-07-17T07:31:46.471Z,21.37
2017-07-17T07:32:27.014Z,21.34
2017-07-17T07:33:07.566Z,21.32
2017-07-17T07:33:48.108Z,21.34
2017-07-17T07:34:28.659Z,21.37
2017-07-17T07:35:09.193Z,21.46
2017-07-17T07:35:49.738Z,21.42
2017-07-17T07:36:30.292Z,21.49
2017-07-17T07:37:10.848Z,21.59
2017-07-17T07:37:51.395Z,21.58
2017-07-17T07:38:31.944Z,21.65
2017-07-17T07:39:12.493Z,21.65
2017-07-17T07:39:53.045Z,21.62
2017-07-17T07:40:33.592Z,21.58
2017-07-17T07:41:14.139Z,21.56
2017-07-17T07:41:54.677Z,21.52
2017-07-17T07:42:35.225Z,21.64
2017-07-17T07:43:15.781Z,21.62
2017-07-17T07:43:56.348Z,21.58
2017-07-17T07:44:36.892Z,21.58
2017-07-17T07:45:17.454Z,21.46
2017-07-17T07:45:58.006Z,21.47
2017-07-17T07:46:38.532Z,21.35
2017-07-17T07:47:19.066Z,21.37
2017-07-17T07:47:59.603Z,21.32
2017-07-17T07:48:40.147Z,21.32
2017-07-17T07:49:20.677Z,21.32
2017-07-17T07:50:01.230Z,21.32
2017-07-17T07:50:41.752Z,21.35
2017-07-17T07:51:22.289Z,21.44
2017-07-17T07:52:02.836Z,21.44
2017-07-17T07:52:43.377Z,21.46
2017-07-17T07:53:23.915Z,21.47
2017-07-17T07:54:04.450Z,21.49
2017-07-17T07:54:45.002Z,21.56
2017-07-17T07:55:25.532Z,21.62
2017-07-17T07:56:06.077Z,21.54
2017-07-17T07:56:46.620Z,21.59
2017-07-17T07:57:27.168Z,21.56
2017-07-17T07:58:07.711Z,21.64
2017-07-17T07:58:48.262Z,21.65
2017-07-17T07:59:28.796Z,21.61
2017-07-17T08:00:09.352Z,21.54
2017-07-17T08:00:49.893Z,21.62
2017-07-17T08:01:30.455Z,21.62
2017-07-17T08:02:10.995Z,21.56
2017-07-17T08:02:51.549Z,21.52
2017-07-17T08:03:32.065Z,21.54
2017-07-17T08:04:12.619Z,21.61
2017-07-17T08:04:53.150Z,21.59
2017-07-17T08:05:33.693Z,21.58
2017-07-17T08:06:14.225Z,21.56
2017-07-17T08:06:54.752Z,21.54
2017-07-17T08:07:35.287Z,21.54
2017-07-17T08:08:15.851Z,21.54
2017-07-17T08:08:56.389Z,21.54
2017-07-17T08:09:36.923Z,21.61
2017-07-17T08:10:17.437Z,21.59
2017-07-17T08:10:57.948Z,21.52
2017-07-17T08:11:38.512Z,21.53
2017-07-17T08:12:19.041Z,21.47
2017-07-17T08:12:59.564Z,21.46
2017-07-17T08:13:40.078Z,21.53
2017-07-17T08:14:20.625Z,21.49
2017-07-17T08:15:01.148Z,21.5
2017-07-17T08:15:41.673Z,21.44
2017-07-17T08:16:22.213Z,21.46
2017-07-17T08:17:02.778Z,21.35
2017-07-17T08:17:43.334Z,21.34
2017-07-17T08:18:23.836Z,21.37
2017-07-17T08:19:04.370Z,21.37
2017-07-17T08:19:44.881Z,21.35
2017-07-17T08:20:25.417Z,21.37
2017-07-17T08:21:06.010Z,21.44
2017-07-17T08:21:46.569Z,21.47
2017-07-17T08:22:27.119Z,21.59
2017-07-17T08:23:07.641Z,21.52
2017-07-17T08:23:48.172Z,21.58
2017-07-17T08:24:28.702Z,21.62
2017-07-17T08:25:09.253Z,21.65
2017-07-17T08:25:49.792Z,21.61
2017-07-17T08:26:30.337Z,21.68
2017-07-17T08:27:10.879Z,21.67
2017-07-17T08:27:51.432Z,21.71
2017-07-17T08:28:31.994Z,21.75
2017-07-17T08:29:12.545Z,21.8
2017-07-17T08:29:53.079Z,21.9
2017-07-17T08:30:33.618Z,22
2017-07-17T08:31:14.167Z,22
2017-07-17T08:31:54.741Z,22.14
2017-07-17T08:32:35.269Z,22.1
2017-07-17T08:33:15.820Z,22.28
2017-07-17T08:33:56.390Z,22.24
2017-07-17T08:34:36.911Z,22.31
2017-07-17T08:35:17.453Z,22.33
2017-07-17T08:35:57.986Z,22.35
2017-07-17T08:36:38.539Z,22.46
2017-07-17T08:37:19.043Z,22.36
2017-07-17T08:37:59.575Z,22.46
2017-07-17T08:38:40.109Z,22.49
2017-07-17T08:39:20.658Z,22.47
2017-07-17T08:40:01.228Z,22.6
2017-07-17T08:40:41.760Z,22.54
2017-07-17T08:41:22.291Z,22.57
2017-07-17T08:42:02.850Z,22.61
2017-07-17T08:42:43.374Z,22.57
2017-07-17T08:43:23.897Z,22.68
2017-07-17T08:44:04.430Z,22.75